sensor_id;sensor_type;location;lat;lon;timestamp;temperature;humidity
6752;DHT22;3413;47.680;9.166;2022-11-20T08:25:48;10.10;99.90
6752;DHT22;3413;47.680;9.166;2022-11-20T08:30:51;10.00;99.90
6752;DHT22;3413;47.680;9.166;2022-11-20T08:36:03;10.00;99.90
6752;DHT22;3413;47.680;9.166;2022-11-20T08:41:06;10.00;99.90
6752;DHT22;3413;47.680;9.166;2022-11-20T08:46:33;10.10;99.90
6752;DHT22;3413;47.680;9.166;2022-11-20T08:51:36;10.30;99.90
6752;DHT22;3413;47.680;9.166;2022-11-20T08:56:39;10.30;99.90
6752;DHT22;3413;47.680;9.166;2022-11-20T09:01:42;10.30;99.90
6752;DHT22;3413;47.680;9.166;2022-11-20T09:06:44;10.30;99.90
6752;DHT22;3413;47.680;9.166;2022-11-20T09:11:46;10.30;99.90
6752;DHT22;3413;47.680;9.166;2022-11-20T09:16:49;10.40;99.90
6752;DHT22;3413;47.680;9.166;2022-11-20T09:21:52;10.50;99.90
6752;DHT22;3413;47.680;9.166;2022-11-20T09:27:03;10.60;99.90
6752;DHT22;3413;47.680;9.166;2022-11-20T09:32:05;10.80;99.90
6752;DHT22;3413;47.680;9.166;2022-11-20T09:37:07;10.80;99.90
6752;DHT22;3413;47.680;9.166;2022-11-20T09:47:58;11.20;99.90
6752;DHT22;3413;47.680;9.166;2022-11-20T10:00:02;11.40;99.90
6752;DHT22;3413;47.680;9.166;2022-11-20T10:32:59;11.50;99.90
6752;DHT22;3413;47.680;9.166;2022-11-20T10:38:29;11.50;99.90
6752;DHT22;3413;47.680;9.166;2022-11-20T10:44:37;11.50;99.90
6752;DHT22;3413;47.680;9.166;2022-11-20T10:50:21;11.40;99.90
6752;DHT22;3413;47.680;9.166;2022-11-20T10:56:38;11.50;99.90
6752;DHT22;3413;47.680;9.166;2022-11-20T11:03:00;11.30;99.90
6752;DHT22;3413;47.680;9.166;2022-11-20T11:08:20;11.20;99.90
6752;DHT22;3413;47.680;9.166;2022-11-20T11:14:13;11.20;99.90
6752;DHT22;3413;47.680;9.166;2022-11-20T11:19:16;11.30;99.90
6752;DHT22;3413;47.680;9.166;2022-11-20T11:30:15;11.20;99.90
6752;DHT22;3413;47.680;9.166;2022-11-20T11:36:20;11.30;99.90
6752;DHT22;3413;47.680;9.166;2022-11-20T11:41:45;11.40;99.90
6752;DHT22;3413;47.680;9.166;2022-11-20T11:53:26;11.40;99.90
6752;DHT22;3413;47.680;9.166;2022-11-20T11:59:25;11.40;99.90
6752;DHT22;3413;47.680;9.166;2022-11-20T12:05:47;11.40;99.90
6752;DHT22;3413;47.680;9.166;2022-11-20T12:16:51;11.50;99.90
6752;DHT22;3413;47.680;9.166;2022-11-20T12:22:05;11.50;99.90
6752;DHT22;3413;47.680;9.166;2022-11-20T13:01:30;12.50;99.90
6752;DHT22;3413;47.680;9.166;2022-11-20T13:19:34;12.40;99.90
6752;DHT22;3413;47.680;9.166;2022-11-20T13:25:48;12.50;99.90
6752;DHT22;3413;47.680;9.166;2022-11-20T13:37:31;12.40;99.90
6752;DHT22;3413;47.680;9.166;2022-11-20T13:50:40;12.50;99.90
6752;DHT22;3413;47.680;9.166;2022-11-20T14:02:25;12.50;99.90
6752;DHT22;3413;47.680;9.166;2022-11-20T14:08:52;12.70;99.90
6752;DHT22;3413;47.680;9.166;2022-11-20T14:15:00;13.10;99.90
6752;DHT22;3413;47.680;9.166;2022-11-20T14:20:14;13.30;99.90
6752;DHT22;3413;47.680;9.166;2022-11-20T15:05:06;12.60;99.90
6752;DHT22;3413;47.680;9.166;2022-11-20T15:10:37;12.60;99.90
6752;DHT22;3413;47.680;9.166;2022-11-20T15:15:52;12.60;99.90
6752;DHT22;3413;47.680;9.166;2022-11-20T15:21:02;12.60;99.90
6752;DHT22;3413;47.680;9.166;2022-11-20T15:31:51;12.40;99.90
6752;DHT22;3413;47.680;9.166;2022-11-20T15:37:00;12.40;99.90
6752;DHT22;3413;47.680;9.166;2022-11-20T15:42:22;12.50;99.90
6752;DHT22;3413;47.680;9.166;2022-11-20T15:48:43;12.60;99.90
6752;DHT22;3413;47.680;9.166;2022-11-20T16:00:06;12.40;99.90
6752;DHT22;3413;47.680;9.166;2022-11-20T16:05:15;12.50;99.90
6752;DHT22;3413;47.680;9.166;2022-11-20T16:24:46;12.70;99.90
6752;DHT22;3413;47.680;9.166;2022-11-20T16:42:35;12.60;99.90
6752;DHT22;3413;47.680;9.166;2022-11-20T16:48:11;12.60;99.90
6752;DHT22;3413;47.680;9.166;2022-11-20T17:01:56;12.60;99.90
6752;DHT22;3413;47.680;9.166;2022-11-20T17:15:05;12.20;99.90
6752;DHT22;3413;47.680;9.166;2022-11-20T17:33:49;11.90;99.90
6752;DHT22;3413;47.680;9.166;2022-11-20T17:44:30;12.00;99.90
6752;DHT22;3413;47.680;9.166;2022-11-20T17:49:34;12.10;99.90
6752;DHT22;3413;47.680;9.166;2022-11-20T17:54:36;12.00;99.90
6752;DHT22;3413;47.680;9.166;2022-11-20T17:59:42;12.00;99.90
6752;DHT22;3413;47.680;9.166;2022-11-20T18:04:47;12.00;99.90
6752;DHT22;3413;47.680;9.166;2022-11-20T18:09:59;12.00;99.90
6752;DHT22;3413;47.680;9.166;2022-11-20T18:15:13;12.00;99.90
6752;DHT22;3413;47.680;9.166;2022-11-20T18:21:22;12.00;99.90
6752;DHT22;3413;47.680;9.166;2022-11-20T18:26:33;11.90;99.90
6752;DHT22;3413;47.680;9.166;2022-11-20T18:32:04;11.80;99.90
6752;DHT22;3413;47.680;9.166;2022-11-20T18:37:12;11.80;99.90
6752;DHT22;3413;47.680;9.166;2022-11-20T18:42:37;11.70;99.90
6752;DHT22;3413;47.680;9.166;2022-11-20T18:48:35;11.70;99.90
6752;DHT22;3413;47.680;9.166;2022-11-20T18:53:55;11.70;99.90
6752;DHT22;3413;47.680;9.166;2022-11-20T19:00:00;11.50;99.90
6752;DHT22;3413;47.680;9.166;2022-11-20T19:12:27;11.40;99.90
6752;DHT22;3413;47.680;9.166;2022-11-20T19:19:05;11.40;99.90
6752;DHT22;3413;47.680;9.166;2022-11-20T19:24:35;11.30;99.90
6752;DHT22;3413;47.680;9.166;2022-11-20T19:37:54;11.00;99.90
6752;DHT22;3413;47.680;9.166;2022-11-20T19:43:14;10.80;99.90
6752;DHT22;3413;47.680;9.166;2022-11-20T19:49:31;10.50;99.90
6752;DHT22;3413;47.680;9.166;2022-11-20T19:55:57;10.40;99.90
6752;DHT22;3413;47.680;9.166;2022-11-20T20:01:28;10.20;99.90
6752;DHT22;3413;47.680;9.166;2022-11-20T20:12:15;9.80;99.90
6752;DHT22;3413;47.680;9.166;2022-11-20T20:24:45;9.60;99.90
6752;DHT22;3413;47.680;9.166;2022-11-20T20:31:05;9.50;99.90
6752;DHT22;3413;47.680;9.166;2022-11-20T20:37:09;9.40;99.90
6752;DHT22;3413;47.680;9.166;2022-11-20T20:42:31;9.30;99.90
6752;DHT22;3413;47.680;9.166;2022-11-20T20:48:17;9.30;99.90
6752;DHT22;3413;47.680;9.166;2022-11-20T20:53:24;9.10;99.90
6752;DHT22;3413;47.680;9.166;2022-11-20T22:24:23;8.40;99.90
6752;DHT22;3413;47.680;9.166;2022-11-20T22:52:40;8.70;99.90
6752;DHT22;3413;47.680;9.166;2022-11-20T22:58:08;8.70;99.90
6752;DHT22;3413;47.680;9.166;2022-11-20T23:04:25;8.70;99.90
6752;DHT22;3413;47.680;9.166;2022-11-20T23:27:22;8.80;99.90
6752;DHT22;3413;47.680;9.166;2022-11-20T23:40:33;8.80;99.90
6752;DHT22;3413;47.680;9.166;2022-11-20T23:47:24;8.80;99.90
6752;DHT22;3413;47.680;9.166;2022-11-20T23:53:17;8.70;99.90
